TOM888 ENVA-LDZA
Flight info
| Callsign | TOM888 |
|---|---|
| Flight time | 2h 34m |
| Altitude | 37000 |
| Route | EVNEN L996 INREX DCT OGIRO DCT ROXEN DCT POKEN Z491 VAVUN DCT EKSEK DCT LANUX DCT PETOV |
| Aircraft | B738/M-SDE2E3FGHIRWXY/LB1 |
Departure
| Time | 2026-04-27 13:56 |
|---|---|
| Airport | Trondheim Airport, Værnes (ENVA) |
Arrival
| Time | 2026-04-27 16:30 |
|---|---|
| Airport | Zagreb Franjo Tuđman International Airport (LDZA) |
| Time | Latitude | Longitude | Altitude | Speed | Heading |
|---|---|---|---|---|---|
| 2026-04-27 13:30 | 63.45385 | 10.92255 | 38 ft | 0 kts | 270° |
| 2026-04-27 13:48 | 63.45384 | 10.92299 | 37 ft | 4 kts | 275° |
| 2026-04-27 13:48 | 63.45380 | 10.92359 | 36 ft | 4 kts | 287° |
| 2026-04-27 13:49 | 63.45369 | 10.92411 | 38 ft | 4 kts | 315° |
| 2026-04-27 13:49 | 63.45353 | 10.92432 | 37 ft | 1 kts | 0° |
| 2026-04-27 13:49 | 63.45348 | 10.92432 | 41 ft | 0 kts | 0° |
| 2026-04-27 13:52 | 63.45350 | 10.92432 | 41 ft | 1 kts | 0° |
| 2026-04-27 13:52 | 63.45388 | 10.92432 | 38 ft | 11 kts | 359° |
| 2026-04-27 13:52 | 63.45489 | 10.92435 | 41 ft | 17 kts | 0° |
| 2026-04-27 13:52 | 63.45588 | 10.92436 | 41 ft | 8 kts | 44° |
| 2026-04-27 13:53 | 63.45594 | 10.92842 | 45 ft | 22 kts | 91° |
| 2026-04-27 13:53 | 63.45593 | 10.93200 | 51 ft | 23 kts | 90° |
| 2026-04-27 13:53 | 63.45592 | 10.93551 | 54 ft | 22 kts | 90° |
| 2026-04-27 13:54 | 63.45614 | 10.93870 | 57 ft | 20 kts | 54° |
| 2026-04-27 13:54 | 63.45662 | 10.93984 | 56 ft | 8 kts | 44° |
| 2026-04-27 13:54 | 63.45701 | 10.94068 | 54 ft | 8 kts | 44° |
| 2026-04-27 13:54 | 63.45745 | 10.94157 | 58 ft | 4 kts | 25° |
| 2026-04-27 13:55 | 63.45757 | 10.94097 | 57 ft | 6 kts | 269° |
| 2026-04-27 13:55 | 63.45757 | 10.93905 | 57 ft | 32 kts | 270° |
| 2026-04-27 13:55 | 63.45759 | 10.92819 | 45 ft | 105 kts | 270° |
| 2026-04-27 13:55 | 63.45759 | 10.90738 | 109 ft | 155 kts | 270° |
| 2026-04-27 13:56 | 63.45771 | 10.88401 | 998 ft | 146 kts | 270° |
| 2026-04-27 13:56 | 63.45786 | 10.85974 | 1563 ft | 167 kts | 275° |
| 2026-04-27 13:56 | 63.45795 | 10.83361 | 2222 ft | 177 kts | 275° |
| 2026-04-27 13:56 | 63.45804 | 10.80408 | 2589 ft | 203 kts | 274° |
| 2026-04-27 13:57 | 63.45810 | 10.77142 | 3000 ft | 216 kts | 274° |
| 2026-04-27 13:57 | 63.45814 | 10.73737 | 3589 ft | 222 kts | 274° |
| 2026-04-27 13:57 | 63.45812 | 10.70264 | 4320 ft | 226 kts | 273° |
| 2026-04-27 13:57 | 63.45808 | 10.66713 | 5119 ft | 229 kts | 273° |
| 2026-04-27 13:58 | 63.45802 | 10.63128 | 5916 ft | 233 kts | 274° |
| 2026-04-27 13:58 | 63.45795 | 10.59459 | 6642 ft | 238 kts | 274° |
| 2026-04-27 13:58 | 63.45556 | 10.55805 | 7369 ft | 249 kts | 249° |
| 2026-04-27 13:58 | 63.44427 | 10.52820 | 8063 ft | 264 kts | 215° |
| 2026-04-27 13:59 | 63.42632 | 10.51615 | 8538 ft | 281 kts | 182° |
| 2026-04-27 13:59 | 63.40653 | 10.51761 | 9169 ft | 289 kts | 168° |
| 2026-04-27 13:59 | 63.38863 | 10.53731 | 9838 ft | 289 kts | 132° |
| 2026-04-27 13:59 | 63.37764 | 10.57439 | 10354 ft | 292 kts | 104° |
| 2026-04-27 14:00 | 63.37373 | 10.61909 | 10677 ft | 301 kts | 86° |
| 2026-04-27 14:00 | 63.37355 | 10.66741 | 10861 ft | 323 kts | 83° |
| 2026-04-27 14:00 | 63.37401 | 10.71913 | 11059 ft | 344 kts | 83° |
| 2026-04-27 14:00 | 63.37441 | 10.77280 | 11515 ft | 356 kts | 83° |
| 2026-04-27 14:01 | 63.37460 | 10.82828 | 12224 ft | 360 kts | 83° |
| 2026-04-27 14:01 | 63.37461 | 10.88432 | 12995 ft | 363 kts | 83° |
| 2026-04-27 14:01 | 63.37454 | 10.94100 | 13730 ft | 368 kts | 84° |
| 2026-04-27 14:01 | 63.37442 | 10.99857 | 14448 ft | 374 kts | 84° |
| 2026-04-27 14:02 | 63.37426 | 11.05685 | 15140 ft | 378 kts | 84° |
| 2026-04-27 14:02 | 63.37407 | 11.11563 | 15857 ft | 382 kts | 83° |
| 2026-04-27 14:02 | 63.37387 | 11.17519 | 16553 ft | 386 kts | 83° |
| 2026-04-27 14:02 | 63.37083 | 11.23485 | 17192 ft | 405 kts | 101° |
| 2026-04-27 14:03 | 63.35757 | 11.29140 | 17834 ft | 423 kts | 125° |
| 2026-04-27 14:03 | 63.33521 | 11.33501 | 18527 ft | 435 kts | 148° |
| 2026-04-27 14:03 | 63.30749 | 11.36298 | 19140 ft | 440 kts | 158° |
| 2026-04-27 14:03 | 63.27890 | 11.38838 | 19668 ft | 445 kts | 158° |
| 2026-04-27 14:04 | 63.25004 | 11.41371 | 20298 ft | 447 kts | 158° |
| 2026-04-27 14:04 | 63.22106 | 11.43943 | 20938 ft | 451 kts | 158° |
| 2026-04-27 14:04 | 63.19177 | 11.46584 | 21379 ft | 458 kts | 158° |
| 2026-04-27 14:04 | 63.16217 | 11.49285 | 21882 ft | 463 kts | 157° |
| 2026-04-27 14:05 | 63.13270 | 11.51987 | 22454 ft | 466 kts | 157° |
| 2026-04-27 14:05 | 63.10266 | 11.54743 | 23013 ft | 469 kts | 157° |
| 2026-04-27 14:05 | 63.07236 | 11.57516 | 23523 ft | 474 kts | 158° |
| 2026-04-27 14:05 | 63.04179 | 11.60305 | 24020 ft | 477 kts | 158° |
| 2026-04-27 14:06 | 63.01100 | 11.63099 | 24462 ft | 481 kts | 158° |
| 2026-04-27 14:06 | 62.97899 | 11.65241 | 24892 ft | 482 kts | 171° |
| 2026-04-27 14:06 | 62.94582 | 11.66364 | 25328 ft | 483 kts | 174° |
| 2026-04-27 14:06 | 62.91249 | 11.67258 | 25851 ft | 483 kts | 175° |
| 2026-04-27 14:07 | 62.87950 | 11.68091 | 26290 ft | 484 kts | 175° |
| 2026-04-27 14:07 | 62.84593 | 11.68967 | 26690 ft | 487 kts | 175° |
| 2026-04-27 14:07 | 62.81216 | 11.69901 | 27057 ft | 491 kts | 175° |
| 2026-04-27 14:07 | 62.77822 | 11.70886 | 27422 ft | 494 kts | 174° |
| 2026-04-27 14:08 | 62.74404 | 11.71909 | 27786 ft | 497 kts | 174° |
| 2026-04-27 14:08 | 62.70969 | 11.72954 | 28153 ft | 500 kts | 174° |
| 2026-04-27 14:08 | 62.67518 | 11.74008 | 28521 ft | 502 kts | 174° |
| 2026-04-27 14:08 | 62.64050 | 11.75065 | 28887 ft | 504 kts | 174° |
| 2026-04-27 14:09 | 62.60564 | 11.76122 | 29209 ft | 507 kts | 174° |
| 2026-04-27 14:09 | 62.57112 | 11.77164 | 29582 ft | 509 kts | 174° |
| 2026-04-27 14:09 | 62.53591 | 11.78222 | 29909 ft | 512 kts | 174° |
| 2026-04-27 14:09 | 62.50053 | 11.79281 | 30215 ft | 514 kts | 174° |
| 2026-04-27 14:10 | 62.46502 | 11.80341 | 30580 ft | 515 kts | 174° |
| 2026-04-27 14:10 | 62.42949 | 11.81400 | 30912 ft | 517 kts | 174° |
| 2026-04-27 14:10 | 62.39372 | 11.82462 | 31107 ft | 521 kts | 174° |
| 2026-04-27 14:10 | 62.35782 | 11.83526 | 31465 ft | 520 kts | 174° |
| 2026-04-27 14:11 | 62.32211 | 11.84584 | 31890 ft | 517 kts | 174° |
| 2026-04-27 14:11 | 62.28719 | 11.85617 | 32537 ft | 509 kts | 174° |
| 2026-04-27 14:11 | 62.25227 | 11.86648 | 33068 ft | 505 kts | 174° |
| 2026-04-27 14:11 | 62.21739 | 11.87672 | 33320 ft | 507 kts | 174° |
| 2026-04-27 14:12 | 62.18231 | 11.88696 | 33522 ft | 510 kts | 174° |
| 2026-04-27 14:12 | 62.14715 | 11.89722 | 33826 ft | 510 kts | 174° |
| 2026-04-27 14:12 | 62.11202 | 11.90747 | 34236 ft | 508 kts | 174° |
| 2026-04-27 14:12 | 62.07705 | 11.91766 | 34610 ft | 506 kts | 174° |
| 2026-04-27 14:13 | 62.04216 | 11.92780 | 34909 ft | 506 kts | 174° |
| 2026-04-27 14:13 | 62.00730 | 11.93789 | 35142 ft | 506 kts | 174° |
| 2026-04-27 14:13 | 61.97266 | 11.94791 | 35654 ft | 498 kts | 174° |
| 2026-04-27 14:13 | 61.93898 | 11.95766 | 36093 ft | 494 kts | 174° |
| 2026-04-27 14:14 | 61.90489 | 11.96750 | 36295 ft | 495 kts | 174° |
| 2026-04-27 14:14 | 61.87066 | 11.97734 | 36467 ft | 497 kts | 174° |
| 2026-04-27 14:14 | 61.83638 | 11.98717 | 36721 ft | 497 kts | 174° |
| 2026-04-27 14:14 | 61.80219 | 11.99697 | 37038 ft | 495 kts | 174° |
| 2026-04-27 14:15 | 61.76812 | 12.00672 | 37346 ft | 494 kts | 174° |
| 2026-04-27 14:15 | 61.69962 | 12.02623 | 37374 ft | 499 kts | 174° |
| 2026-04-27 14:16 | 61.63147 | 12.04558 | 37342 ft | 494 kts | 174° |
| 2026-04-27 14:16 | 61.56374 | 12.06475 | 37362 ft | 490 kts | 174° |
| 2026-04-27 14:17 | 61.49621 | 12.08373 | 37350 ft | 490 kts | 174° |
| 2026-04-27 14:17 | 61.42859 | 12.10265 | 37348 ft | 490 kts | 174° |
| 2026-04-27 14:18 | 61.36132 | 12.12140 | 37337 ft | 491 kts | 174° |
| 2026-04-27 14:18 | 61.29351 | 12.14023 | 37332 ft | 492 kts | 174° |
| 2026-04-27 14:19 | 61.22553 | 12.15903 | 37343 ft | 493 kts | 174° |
| 2026-04-27 14:19 | 61.15744 | 12.17777 | 37346 ft | 494 kts | 174° |
| 2026-04-27 14:20 | 61.08976 | 12.19632 | 37343 ft | 495 kts | 174° |
| 2026-04-27 14:20 | 61.02144 | 12.21497 | 37329 ft | 495 kts | 174° |
| 2026-04-27 14:21 | 60.95359 | 12.24122 | 37325 ft | 496 kts | 169° |
| 2026-04-27 14:21 | 60.88611 | 12.27136 | 37328 ft | 497 kts | 169° |
| 2026-04-27 14:22 | 60.81858 | 12.30130 | 37320 ft | 496 kts | 169° |
| 2026-04-27 14:22 | 60.75150 | 12.33034 | 37299 ft | 496 kts | 169° |
| 2026-04-27 14:23 | 60.68404 | 12.35914 | 37336 ft | 496 kts | 170° |
| 2026-04-27 14:23 | 60.61645 | 12.38783 | 37325 ft | 496 kts | 170° |
| 2026-04-27 14:24 | 60.54883 | 12.41644 | 37315 ft | 497 kts | 170° |
| 2026-04-27 14:24 | 60.48115 | 12.44497 | 37305 ft | 497 kts | 170° |
| 2026-04-27 14:25 | 60.41394 | 12.47319 | 37304 ft | 497 kts | 169° |
| 2026-04-27 14:25 | 60.34626 | 12.50150 | 37305 ft | 497 kts | 169° |
| 2026-04-27 14:26 | 60.27854 | 12.52969 | 37296 ft | 497 kts | 169° |
| 2026-04-27 14:26 | 60.21086 | 12.55774 | 37306 ft | 497 kts | 169° |
| 2026-04-27 14:27 | 60.14355 | 12.58553 | 37259 ft | 497 kts | 169° |
| 2026-04-27 14:27 | 60.07591 | 12.61333 | 37291 ft | 496 kts | 169° |
| 2026-04-27 14:28 | 60.00845 | 12.64095 | 37296 ft | 494 kts | 169° |
| 2026-04-27 14:28 | 59.94109 | 12.66842 | 37294 ft | 493 kts | 169° |
| 2026-04-27 14:29 | 59.87434 | 12.69552 | 37299 ft | 492 kts | 169° |
| 2026-04-27 14:29 | 59.80736 | 12.72260 | 37304 ft | 490 kts | 169° |
| 2026-04-27 14:30 | 59.74059 | 12.74949 | 37297 ft | 489 kts | 169° |
| 2026-04-27 14:30 | 59.67403 | 12.77618 | 37301 ft | 487 kts | 169° |
| 2026-04-27 14:31 | 59.60772 | 12.80267 | 37306 ft | 486 kts | 169° |
| 2026-04-27 14:31 | 59.54194 | 12.82883 | 37295 ft | 485 kts | 169° |
| 2026-04-27 14:32 | 59.47590 | 12.85500 | 37310 ft | 484 kts | 169° |
| 2026-04-27 14:32 | 59.40997 | 12.88102 | 37306 ft | 483 kts | 169° |
| 2026-04-27 14:33 | 59.34409 | 12.90691 | 37312 ft | 483 kts | 169° |
| 2026-04-27 14:33 | 59.27873 | 12.93251 | 37314 ft | 482 kts | 169° |
| 2026-04-27 14:34 | 59.21284 | 12.95821 | 37309 ft | 483 kts | 170° |
| 2026-04-27 14:34 | 59.14685 | 12.98385 | 37317 ft | 484 kts | 170° |
| 2026-04-27 14:35 | 59.08080 | 13.00940 | 37314 ft | 485 kts | 170° |
| 2026-04-27 14:35 | 59.01454 | 13.03494 | 37322 ft | 485 kts | 170° |
| 2026-04-27 14:36 | 58.94868 | 13.06024 | 37321 ft | 486 kts | 170° |
| 2026-04-27 14:36 | 58.88231 | 13.08563 | 37322 ft | 486 kts | 170° |
| 2026-04-27 14:37 | 58.81597 | 13.11091 | 37330 ft | 486 kts | 170° |
| 2026-04-27 14:37 | 58.74963 | 13.13644 | 37327 ft | 486 kts | 169° |
| 2026-04-27 14:38 | 58.68407 | 13.16467 | 37331 ft | 486 kts | 168° |
| 2026-04-27 14:38 | 58.61827 | 13.19389 | 37320 ft | 485 kts | 168° |
| 2026-04-27 14:39 | 58.55254 | 13.22267 | 37328 ft | 484 kts | 168° |
| 2026-04-27 14:39 | 58.48688 | 13.25100 | 37335 ft | 484 kts | 168° |
| 2026-04-27 14:40 | 58.42170 | 13.27891 | 37338 ft | 483 kts | 168° |
| 2026-04-27 14:40 | 58.35607 | 13.30690 | 37329 ft | 483 kts | 168° |
| 2026-04-27 14:41 | 58.29048 | 13.33478 | 37323 ft | 483 kts | 168° |
| 2026-04-27 14:41 | 58.22496 | 13.36254 | 37324 ft | 482 kts | 168° |
| 2026-04-27 14:42 | 58.15995 | 13.38998 | 37329 ft | 482 kts | 168° |
| 2026-04-27 14:42 | 58.09451 | 13.41750 | 37320 ft | 482 kts | 168° |
| 2026-04-27 14:43 | 58.02909 | 13.44491 | 37318 ft | 481 kts | 168° |
| 2026-04-27 14:43 | 57.96373 | 13.47218 | 37320 ft | 481 kts | 168° |
| 2026-04-27 14:44 | 57.89835 | 13.49937 | 37324 ft | 481 kts | 169° |
| 2026-04-27 14:44 | 57.83335 | 13.52629 | 37315 ft | 482 kts | 169° |
| 2026-04-27 14:45 | 57.76783 | 13.55333 | 37323 ft | 483 kts | 169° |
| 2026-04-27 14:45 | 57.70221 | 13.58031 | 37307 ft | 483 kts | 169° |
| 2026-04-27 14:46 | 57.63651 | 13.60723 | 37313 ft | 483 kts | 169° |
| 2026-04-27 14:46 | 57.57123 | 13.63387 | 37300 ft | 484 kts | 169° |
| 2026-04-27 14:47 | 57.50548 | 13.66061 | 37302 ft | 484 kts | 169° |
| 2026-04-27 14:47 | 57.43969 | 13.68727 | 37285 ft | 483 kts | 169° |
| 2026-04-27 14:48 | 57.37403 | 13.71377 | 37294 ft | 483 kts | 169° |
| 2026-04-27 14:48 | 57.27617 | 13.75309 | 37294 ft | 481 kts | 169° |
| 2026-04-27 14:49 | 57.21080 | 13.77925 | 37310 ft | 480 kts | 169° |
| 2026-04-27 14:49 | 57.14544 | 13.80530 | 37281 ft | 480 kts | 169° |
| 2026-04-27 14:50 | 57.08015 | 13.83122 | 37285 ft | 479 kts | 169° |
| 2026-04-27 14:50 | 57.01539 | 13.85685 | 37286 ft | 479 kts | 169° |
| 2026-04-27 14:51 | 56.95026 | 13.88253 | 37287 ft | 479 kts | 169° |
| 2026-04-27 14:51 | 56.89611 | 13.90381 | 37289 ft | 479 kts | 169° |
| 2026-04-27 14:52 | 56.81999 | 13.93362 | 37287 ft | 478 kts | 169° |
| 2026-04-27 14:52 | 56.75540 | 13.95882 | 37281 ft | 478 kts | 169° |
| 2026-04-27 14:53 | 56.69043 | 13.98408 | 37283 ft | 478 kts | 169° |
| 2026-04-27 14:53 | 56.62541 | 14.00928 | 37281 ft | 478 kts | 169° |
| 2026-04-27 14:54 | 56.56044 | 14.03436 | 37283 ft | 477 kts | 170° |
| 2026-04-27 14:54 | 56.49552 | 14.05628 | 37279 ft | 477 kts | 172° |
| 2026-04-27 14:55 | 56.43007 | 14.07619 | 37282 ft | 477 kts | 172° |
| 2026-04-27 14:55 | 56.36454 | 14.09628 | 37277 ft | 478 kts | 172° |
| 2026-04-27 14:56 | 56.29900 | 14.11674 | 37255 ft | 478 kts | 172° |
| 2026-04-27 14:56 | 56.23346 | 14.13731 | 37267 ft | 478 kts | 172° |
| 2026-04-27 14:57 | 56.16834 | 14.15769 | 37270 ft | 478 kts | 172° |
| 2026-04-27 14:57 | 56.10274 | 14.17814 | 37269 ft | 479 kts | 172° |
| 2026-04-27 14:58 | 56.03712 | 14.19850 | 37265 ft | 479 kts | 172° |
| 2026-04-27 14:58 | 55.97150 | 14.21881 | 37258 ft | 478 kts | 173° |
| 2026-04-27 14:59 | 55.90633 | 14.23889 | 37267 ft | 478 kts | 173° |
| 2026-04-27 14:59 | 55.84069 | 14.25905 | 37273 ft | 479 kts | 173° |
| 2026-04-27 15:00 | 55.77501 | 14.27915 | 37269 ft | 479 kts | 173° |
| 2026-04-27 15:00 | 55.70925 | 14.29922 | 37271 ft | 479 kts | 173° |
| 2026-04-27 15:01 | 55.64354 | 14.31921 | 37279 ft | 479 kts | 173° |
| 2026-04-27 15:01 | 55.57830 | 14.33897 | 37285 ft | 479 kts | 173° |
| 2026-04-27 15:02 | 55.51259 | 14.35882 | 37289 ft | 479 kts | 173° |
| 2026-04-27 15:02 | 55.44692 | 14.37858 | 37276 ft | 479 kts | 173° |
| 2026-04-27 15:03 | 55.38132 | 14.39827 | 37289 ft | 478 kts | 173° |
| 2026-04-27 15:03 | 55.31619 | 14.41774 | 37287 ft | 478 kts | 173° |
| 2026-04-27 15:04 | 55.25065 | 14.43727 | 37290 ft | 478 kts | 173° |
| 2026-04-27 15:04 | 55.18515 | 14.45672 | 37294 ft | 478 kts | 174° |
| 2026-04-27 15:05 | 55.11957 | 14.47613 | 37295 ft | 478 kts | 174° |
| 2026-04-27 15:05 | 55.05392 | 14.49549 | 37296 ft | 479 kts | 174° |
| 2026-04-27 15:06 | 54.98866 | 14.51468 | 37294 ft | 479 kts | 174° |
| 2026-04-27 15:06 | 54.92283 | 14.53398 | 37296 ft | 480 kts | 174° |
| 2026-04-27 15:07 | 54.85694 | 14.55323 | 37304 ft | 480 kts | 174° |
| 2026-04-27 15:07 | 54.79167 | 14.57866 | 37302 ft | 484 kts | 163° |
| 2026-04-27 15:08 | 54.72877 | 14.61888 | 37297 ft | 485 kts | 162° |
| 2026-04-27 15:08 | 54.66539 | 14.65922 | 37302 ft | 485 kts | 163° |
| 2026-04-27 15:09 | 54.60181 | 14.69818 | 37297 ft | 485 kts | 163° |
| 2026-04-27 15:09 | 54.53826 | 14.73691 | 37297 ft | 485 kts | 163° |
| 2026-04-27 15:10 | 54.47470 | 14.77570 | 37296 ft | 485 kts | 163° |
| 2026-04-27 15:10 | 54.41113 | 14.81439 | 37293 ft | 485 kts | 163° |
| 2026-04-27 15:11 | 54.34800 | 14.85268 | 37281 ft | 485 kts | 163° |
| 2026-04-27 15:11 | 54.28444 | 14.89111 | 37287 ft | 484 kts | 164° |
| 2026-04-27 15:12 | 54.22072 | 14.92824 | 37293 ft | 483 kts | 165° |
| 2026-04-27 15:12 | 54.15688 | 14.96429 | 37293 ft | 483 kts | 165° |
| 2026-04-27 15:13 | 54.09344 | 15.00032 | 37293 ft | 484 kts | 165° |
| 2026-04-27 15:13 | 54.02943 | 15.03597 | 37279 ft | 484 kts | 166° |
| 2026-04-27 15:14 | 53.96529 | 15.07057 | 37287 ft | 484 kts | 166° |
| 2026-04-27 15:14 | 53.90106 | 15.10518 | 37282 ft | 484 kts | 166° |
| 2026-04-27 15:15 | 53.83725 | 15.13964 | 37277 ft | 485 kts | 166° |
| 2026-04-27 15:15 | 53.77291 | 15.17431 | 37248 ft | 485 kts | 166° |
| 2026-04-27 15:16 | 53.70857 | 15.20882 | 37262 ft | 485 kts | 166° |
| 2026-04-27 15:16 | 53.64420 | 15.24317 | 37266 ft | 485 kts | 166° |
| 2026-04-27 15:17 | 53.58025 | 15.27719 | 37264 ft | 486 kts | 166° |
| 2026-04-27 15:17 | 53.51579 | 15.31141 | 37247 ft | 486 kts | 166° |
| 2026-04-27 15:18 | 53.45065 | 15.33822 | 37241 ft | 477 kts | 179° |
| 2026-04-27 15:18 | 53.38459 | 15.34594 | 37249 ft | 476 kts | 181° |
| 2026-04-27 15:19 | 53.31891 | 15.35292 | 37244 ft | 476 kts | 181° |
| 2026-04-27 15:19 | 53.25277 | 15.36059 | 37248 ft | 476 kts | 180° |
| 2026-04-27 15:20 | 53.18666 | 15.36868 | 37234 ft | 476 kts | 180° |
| 2026-04-27 15:20 | 53.12054 | 15.37686 | 37233 ft | 476 kts | 180° |
| 2026-04-27 15:21 | 53.05441 | 15.38501 | 37229 ft | 476 kts | 180° |
| 2026-04-27 15:21 | 52.98874 | 15.39305 | 37206 ft | 477 kts | 180° |
| 2026-04-27 15:22 | 52.92259 | 15.40112 | 37216 ft | 477 kts | 180° |
| 2026-04-27 15:22 | 52.85645 | 15.40916 | 37226 ft | 477 kts | 180° |
| 2026-04-27 15:23 | 52.79031 | 15.41718 | 37226 ft | 477 kts | 180° |
| 2026-04-27 15:23 | 52.72455 | 15.42512 | 37195 ft | 477 kts | 180° |
| 2026-04-27 15:24 | 52.65840 | 15.43310 | 37217 ft | 477 kts | 180° |
| 2026-04-27 15:24 | 52.59229 | 15.44104 | 37224 ft | 477 kts | 180° |
| 2026-04-27 15:25 | 52.52612 | 15.44896 | 37221 ft | 477 kts | 180° |
| 2026-04-27 15:25 | 52.46036 | 15.45681 | 37224 ft | 477 kts | 180° |
| 2026-04-27 15:26 | 52.39419 | 15.46469 | 37215 ft | 477 kts | 180° |
| 2026-04-27 15:26 | 52.32798 | 15.47254 | 37223 ft | 477 kts | 180° |
| 2026-04-27 15:27 | 52.26175 | 15.48038 | 37216 ft | 477 kts | 180° |
| 2026-04-27 15:27 | 52.19552 | 15.48819 | 37209 ft | 477 kts | 180° |
| 2026-04-27 15:28 | 52.12978 | 15.49593 | 37217 ft | 477 kts | 180° |
| 2026-04-27 15:28 | 52.06357 | 15.50369 | 37214 ft | 477 kts | 180° |
| 2026-04-27 15:29 | 51.99736 | 15.51143 | 37221 ft | 477 kts | 180° |
| 2026-04-27 15:29 | 51.93124 | 15.51915 | 37218 ft | 476 kts | 181° |
| 2026-04-27 15:30 | 51.86554 | 15.52678 | 37216 ft | 476 kts | 181° |
| 2026-04-27 15:30 | 51.79951 | 15.53443 | 37224 ft | 476 kts | 181° |
| 2026-04-27 15:31 | 51.73347 | 15.54206 | 37222 ft | 476 kts | 181° |
| 2026-04-27 15:31 | 51.66748 | 15.54967 | 37216 ft | 475 kts | 181° |
| 2026-04-27 15:32 | 51.60201 | 15.55719 | 37218 ft | 475 kts | 181° |
| 2026-04-27 15:32 | 51.53609 | 15.56473 | 37217 ft | 475 kts | 181° |
| 2026-04-27 15:33 | 51.47017 | 15.57226 | 37190 ft | 475 kts | 181° |
| 2026-04-27 15:33 | 51.40425 | 15.57977 | 37213 ft | 475 kts | 181° |
| 2026-04-27 15:34 | 51.33877 | 15.58720 | 37225 ft | 475 kts | 181° |
| 2026-04-27 15:34 | 51.27273 | 15.59468 | 37219 ft | 476 kts | 181° |
| 2026-04-27 15:35 | 51.20659 | 15.60215 | 37205 ft | 477 kts | 181° |
| 2026-04-27 15:35 | 51.14044 | 15.60960 | 37215 ft | 477 kts | 181° |
| 2026-04-27 15:36 | 51.07478 | 15.61296 | 37216 ft | 474 kts | 185° |
| 2026-04-27 15:36 | 51.00879 | 15.61240 | 37208 ft | 474 kts | 186° |
| 2026-04-27 15:37 | 50.94286 | 15.61171 | 37213 ft | 474 kts | 185° |
| 2026-04-27 15:37 | 50.87688 | 15.61156 | 37203 ft | 474 kts | 185° |
| 2026-04-27 15:38 | 50.81091 | 15.61168 | 37219 ft | 474 kts | 185° |
| 2026-04-27 15:38 | 50.74543 | 15.61188 | 37193 ft | 474 kts | 185° |
| 2026-04-27 15:39 | 50.67945 | 15.61204 | 37207 ft | 474 kts | 185° |
| 2026-04-27 15:39 | 50.61347 | 15.61220 | 37217 ft | 474 kts | 185° |
| 2026-04-27 15:40 | 50.54754 | 15.61235 | 37212 ft | 474 kts | 185° |
| 2026-04-27 15:40 | 50.48163 | 15.61250 | 37195 ft | 473 kts | 185° |
| 2026-04-27 15:41 | 50.41622 | 15.61265 | 37202 ft | 473 kts | 185° |
| 2026-04-27 15:41 | 50.35040 | 15.61279 | 37205 ft | 473 kts | 185° |
| 2026-04-27 15:42 | 50.28453 | 15.61294 | 37206 ft | 473 kts | 185° |
| 2026-04-27 15:42 | 50.21867 | 15.61309 | 37200 ft | 473 kts | 185° |
| 2026-04-27 15:43 | 50.15328 | 15.61324 | 37210 ft | 473 kts | 185° |
| 2026-04-27 15:43 | 50.08742 | 15.61339 | 37211 ft | 473 kts | 185° |
| 2026-04-27 15:44 | 50.02154 | 15.61353 | 37213 ft | 473 kts | 185° |
| 2026-04-27 15:44 | 49.95569 | 15.61368 | 37214 ft | 473 kts | 185° |
| 2026-04-27 15:45 | 49.89022 | 15.61382 | 37208 ft | 474 kts | 185° |
| 2026-04-27 15:45 | 49.82422 | 15.61397 | 37196 ft | 474 kts | 185° |
| 2026-04-27 15:46 | 49.75824 | 15.61412 | 37190 ft | 474 kts | 185° |
| 2026-04-27 15:46 | 49.69221 | 15.61426 | 37196 ft | 475 kts | 185° |
| 2026-04-27 15:47 | 49.62611 | 15.61440 | 37191 ft | 475 kts | 185° |
| 2026-04-27 15:47 | 49.56038 | 15.61455 | 37178 ft | 476 kts | 185° |
| 2026-04-27 15:48 | 49.49416 | 15.61469 | 37183 ft | 476 kts | 185° |
| 2026-04-27 15:49 | 49.39474 | 15.61491 | 37184 ft | 477 kts | 185° |
| 2026-04-27 15:49 | 49.32839 | 15.61506 | 37166 ft | 477 kts | 184° |
| 2026-04-27 15:50 | 49.26242 | 15.61520 | 37174 ft | 477 kts | 184° |
| 2026-04-27 15:50 | 49.19598 | 15.61534 | 37172 ft | 477 kts | 184° |
| 2026-04-27 15:51 | 49.12954 | 15.61548 | 37144 ft | 478 kts | 184° |
| 2026-04-27 15:51 | 49.06306 | 15.61563 | 37178 ft | 478 kts | 184° |
| 2026-04-27 15:52 | 48.99697 | 15.61577 | 37174 ft | 478 kts | 184° |
| 2026-04-27 15:52 | 48.93039 | 15.61591 | 37170 ft | 479 kts | 184° |
| 2026-04-27 15:53 | 48.86368 | 15.61776 | 37159 ft | 481 kts | 180° |
| 2026-04-27 15:53 | 48.79693 | 15.62728 | 37158 ft | 483 kts | 177° |
| 2026-04-27 15:54 | 48.73015 | 15.63834 | 37165 ft | 483 kts | 178° |
| 2026-04-27 15:54 | 48.66372 | 15.64871 | 37135 ft | 483 kts | 178° |
| 2026-04-27 15:55 | 48.59691 | 15.65857 | 37160 ft | 482 kts | 178° |
| 2026-04-27 15:55 | 48.53013 | 15.66820 | 37162 ft | 482 kts | 178° |
| 2026-04-27 15:56 | 48.47460 | 15.67619 | 37162 ft | 482 kts | 178° |
| 2026-04-27 15:56 | 48.39706 | 15.68735 | 37167 ft | 481 kts | 178° |
| 2026-04-27 15:57 | 48.33044 | 15.69692 | 37155 ft | 481 kts | 178° |
| 2026-04-27 15:57 | 48.27468 | 15.70492 | 37166 ft | 480 kts | 178° |
| 2026-04-27 15:58 | 48.20865 | 15.71437 | 37137 ft | 480 kts | 178° |
| 2026-04-27 15:58 | 48.14224 | 15.72384 | 37157 ft | 479 kts | 178° |
| 2026-04-27 15:59 | 48.07591 | 15.73328 | 37156 ft | 479 kts | 178° |
| 2026-04-27 15:59 | 48.00958 | 15.74270 | 37155 ft | 479 kts | 178° |
| 2026-04-27 16:00 | 47.94374 | 15.75202 | 37141 ft | 478 kts | 178° |
| 2026-04-27 16:00 | 47.87756 | 15.76137 | 37159 ft | 477 kts | 178° |
| 2026-04-27 16:01 | 47.81138 | 15.77069 | 37141 ft | 477 kts | 178° |
| 2026-04-27 16:01 | 47.74529 | 15.77998 | 37154 ft | 478 kts | 178° |
| 2026-04-27 16:02 | 47.67906 | 15.78924 | 37137 ft | 478 kts | 178° |
| 2026-04-27 16:02 | 47.61285 | 15.79851 | 37134 ft | 478 kts | 178° |
| 2026-04-27 16:03 | 47.54706 | 15.80769 | 37141 ft | 478 kts | 178° |
| 2026-04-27 16:03 | 47.48076 | 15.81690 | 37132 ft | 479 kts | 178° |
| 2026-04-27 16:04 | 47.41443 | 15.82610 | 37138 ft | 479 kts | 178° |
| 2026-04-27 16:04 | 47.34809 | 15.83528 | 37125 ft | 479 kts | 178° |
| 2026-04-27 16:05 | 47.28227 | 15.84437 | 37124 ft | 478 kts | 177° |
| 2026-04-27 16:05 | 47.21617 | 15.85348 | 37107 ft | 477 kts | 177° |
| 2026-04-27 16:05 | 47.18283 | 15.85805 | 36576 ft | 482 kts | 178° |
| 2026-04-27 16:06 | 47.14954 | 15.86261 | 36037 ft | 479 kts | 177° |
| 2026-04-27 16:06 | 47.11634 | 15.86717 | 35364 ft | 480 kts | 177° |
| 2026-04-27 16:06 | 47.08308 | 15.87172 | 34709 ft | 480 kts | 177° |
| 2026-04-27 16:06 | 47.04977 | 15.87628 | 34029 ft | 481 kts | 177° |
| 2026-04-27 16:07 | 47.01640 | 15.88083 | 33229 ft | 483 kts | 177° |
| 2026-04-27 16:07 | 46.98337 | 15.88534 | 32484 ft | 483 kts | 177° |
| 2026-04-27 16:07 | 46.94983 | 15.88990 | 31727 ft | 484 kts | 177° |
| 2026-04-27 16:07 | 46.91629 | 15.89447 | 30959 ft | 485 kts | 177° |
| 2026-04-27 16:08 | 46.88267 | 15.89904 | 30255 ft | 484 kts | 177° |
| 2026-04-27 16:08 | 46.84928 | 15.90358 | 29633 ft | 479 kts | 177° |
| 2026-04-27 16:08 | 46.81629 | 15.90807 | 29039 ft | 474 kts | 177° |
| 2026-04-27 16:08 | 46.78365 | 15.91250 | 28474 ft | 468 kts | 177° |
| 2026-04-27 16:09 | 46.75139 | 15.91687 | 27898 ft | 463 kts | 177° |
| 2026-04-27 16:09 | 46.68790 | 15.92544 | 26793 ft | 454 kts | 177° |
| 2026-04-27 16:09 | 46.65705 | 15.92959 | 26240 ft | 450 kts | 177° |
| 2026-04-27 16:10 | 46.59528 | 15.93789 | 25161 ft | 442 kts | 177° |
| 2026-04-27 16:10 | 46.53452 | 15.94604 | 24101 ft | 435 kts | 176° |
| 2026-04-27 16:11 | 46.50442 | 15.95007 | 23516 ft | 433 kts | 176° |
| 2026-04-27 16:11 | 46.44489 | 15.95803 | 22351 ft | 426 kts | 176° |
| 2026-04-27 16:12 | 46.38689 | 15.96577 | 21283 ft | 417 kts | 176° |
| 2026-04-27 16:12 | 46.35810 | 15.96961 | 20761 ft | 414 kts | 176° |
| 2026-04-27 16:12 | 46.30169 | 15.98155 | 19707 ft | 411 kts | 159° |
| 2026-04-27 16:13 | 46.27654 | 16.00073 | 19245 ft | 407 kts | 151° |
| 2026-04-27 16:13 | 46.22785 | 16.03999 | 18180 ft | 403 kts | 152° |
| 2026-04-27 16:13 | 46.20363 | 16.05906 | 17590 ft | 401 kts | 152° |
| 2026-04-27 16:14 | 46.15486 | 16.09707 | 16511 ft | 395 kts | 153° |
| 2026-04-27 16:14 | 46.10685 | 16.13437 | 15507 ft | 388 kts | 153° |
| 2026-04-27 16:15 | 46.05951 | 16.17055 | 14530 ft | 381 kts | 159° |
| 2026-04-27 16:15 | 46.00898 | 16.17335 | 13611 ft | 360 kts | 201° |
| 2026-04-27 16:16 | 45.96863 | 16.13609 | 12980 ft | 340 kts | 228° |
| 2026-04-27 16:16 | 45.93693 | 16.08698 | 12000 ft | 336 kts | 230° |
| 2026-04-27 16:17 | 45.90528 | 16.03764 | 10979 ft | 334 kts | 229° |
| 2026-04-27 16:17 | 45.87433 | 15.99032 | 10570 ft | 314 kts | 229° |
| 2026-04-27 16:18 | 45.84531 | 15.94627 | 10273 ft | 294 kts | 228° |
| 2026-04-27 16:18 | 45.81790 | 15.90467 | 9918 ft | 281 kts | 228° |
| 2026-04-27 16:19 | 45.80451 | 15.88434 | 9602 ft | 280 kts | 228° |
| 2026-04-27 16:19 | 45.79120 | 15.86415 | 9304 ft | 278 kts | 228° |
| 2026-04-27 16:20 | 45.75188 | 15.80467 | 8424 ft | 273 kts | 228° |
| 2026-04-27 16:20 | 45.73886 | 15.78499 | 8135 ft | 272 kts | 228° |
| 2026-04-27 16:20 | 45.71305 | 15.74605 | 7640 ft | 265 kts | 228° |
| 2026-04-27 16:21 | 45.70051 | 15.72717 | 7495 ft | 258 kts | 228° |
| 2026-04-27 16:21 | 45.66380 | 15.67194 | 6827 ft | 251 kts | 228° |
| 2026-04-27 16:22 | 45.64998 | 15.65728 | 6672 ft | 249 kts | 202° |
| 2026-04-27 16:22 | 45.61660 | 15.66248 | 6282 ft | 253 kts | 149° |
| 2026-04-27 16:22 | 45.60317 | 15.67806 | 6058 ft | 253 kts | 139° |
| 2026-04-27 16:23 | 45.59052 | 15.69548 | 5805 ft | 253 kts | 137° |
| 2026-04-27 16:23 | 45.56555 | 15.72990 | 5335 ft | 243 kts | 137° |
| 2026-04-27 16:23 | 45.55586 | 15.74891 | 5166 ft | 234 kts | 109° |
| 2026-04-27 16:24 | 45.55457 | 15.77120 | 5001 ft | 223 kts | 77° |
| 2026-04-27 16:24 | 45.56952 | 15.80681 | 4604 ft | 205 kts | 44° |
| 2026-04-27 16:25 | 45.58877 | 15.83555 | 4225 ft | 195 kts | 45° |
| 2026-04-27 16:25 | 45.60701 | 15.86288 | 3840 ft | 188 kts | 46° |
| 2026-04-27 16:26 | 45.62459 | 15.88936 | 3475 ft | 178 kts | 48° |
| 2026-04-27 16:26 | 45.64120 | 15.91441 | 3091 ft | 168 kts | 49° |
| 2026-04-27 16:27 | 45.65714 | 15.93855 | 2670 ft | 167 kts | 48° |
| 2026-04-27 16:27 | 45.68069 | 15.97421 | 2012 ft | 157 kts | 49° |
| 2026-04-27 16:28 | 45.69534 | 15.99643 | 1632 ft | 156 kts | 49° |
| 2026-04-27 16:28 | 45.70956 | 16.01807 | 1153 ft | 145 kts | 49° |
| 2026-04-27 16:29 | 45.72976 | 16.04875 | 468 ft | 139 kts | 48° |
| 2026-04-27 16:30 | 45.74145 | 16.06652 | 359 ft | 85 kts | 46° |
| 2026-04-27 16:30 | 45.74676 | 16.07461 | 357 ft | 9 kts | 54° |
| 2026-04-27 16:31 | 45.74595 | 16.07624 | 358 ft | 1 kts | 137° |
| 2026-04-27 16:31 | 45.74570 | 16.07657 | 358 ft | 6 kts | 137° |
| 2026-04-27 16:32 | 45.74478 | 16.07781 | 362 ft | 9 kts | 137° |
| 2026-04-27 16:32 | 45.74430 | 16.07844 | 362 ft | 9 kts | 137° |
| 2026-04-27 16:33 | 45.74329 | 16.07874 | 362 ft | 9 kts | 225° |
| 2026-04-27 16:33 | 45.74296 | 16.07850 | 361 ft | 5 kts | 162° |
| 2026-04-27 16:33 | 45.74266 | 16.07885 | 357 ft | 6 kts | 137° |
| 2026-04-27 16:33 | 45.74245 | 16.07913 | 360 ft | 3 kts | 136° |
| 2026-04-27 16:34 | 45.74238 | 16.07923 | 358 ft | 0 kts | 136° |